Time;durP1;ratioP1;P1;durP2;ratioP2;P2;SDS_P1;SDS_P2;PMS_P1;PMS_P2;Temp;Humidity;BMP_temperature;BMP_pressure;BME280_temperature;BME280_humidity;BME280_pressure;Samples;Min_cycle;Max_cycle;Signal;HPM_P1;HPM_P2
2022/05/30 00:00:08;;;;;;;3.95;3.60;;;;;;;;;;5054120;28;20167;-82
2022/05/30 00:02:35;;;;;;;3.17;2.97;;;;;;;;;;5053879;28;20049;-82
2022/05/30 00:05:03;;;;;;;4.50;3.97;;;;;;;;;;5053530;28;20136;-82
2022/05/30 00:07:30;;;;;;;3.90;3.60;;;;;;;;;;5053170;28;20085;-82
2022/05/30 00:09:57;;;;;;;3.47;3.28;;;;;;;;;;5053328;28;20072;-82
2022/05/30 00:12:24;;;;;;;4.60;3.50;;;;;;;;;;5053064;28;20088;-81
2022/05/30 00:14:51;;;;;;;3.72;3.35;;;;;;;;;;5052649;28;20585;-82
2022/05/30 00:17:18;;;;;;;3.33;3.05;;;;;;;;;;5052802;28;20132;-81
2022/05/30 00:19:45;;;;;;;5.07;3.88;;;;;;;;;;5054505;28;20088;-81
2022/05/30 00:22:14;;;;;;;4.30;3.95;;;;;;;;;;5052771;28;20053;-81
2022/05/30 00:24:43;;;;;;;4.30;3.97;;;;;;;;;;5053734;28;20057;-82
2022/05/30 00:27:11;;;;;;;4.35;3.95;;;;;;;;;;5053847;28;20055;-81
2022/05/30 00:29:39;;;;;;;5.30;4.30;;;;;;;;;;5053950;28;20124;-82
2022/05/30 00:32:07;;;;;;;7.13;4.70;;;;;;;;;;5054221;28;20095;-82
2022/05/30 00:34:34;;;;;;;4.25;3.85;;;;;;;;;;5052709;28;20049;-81
2022/05/30 00:37:01;;;;;;;4.85;4.35;;;;;;;;;;5053774;28;20373;-82
2022/05/30 00:39:28;;;;;;;5.43;4.32;;;;;;;;;;5052415;28;20127;-81
2022/05/30 00:42:13;;;;;;;6.18;4.40;;;;;;;;;;5052318;28;20052;-82
2022/05/30 00:44:41;;;;;;;5.22;4.72;;;;;;;;;;5049372;28;20088;-81
2022/05/30 00:47:08;;;;;;;5.63;4.80;;;;;;;;;;5016293;28;20507;-82
2022/05/30 00:49:37;;;;;;;5.32;4.82;;;;;;;;;;5015828;28;20073;-81
2022/05/30 00:52:07;;;;;;;6.28;5.00;;;;;;;;;;5015959;28;20073;-81
2022/05/30 00:54:36;;;;;;;5.47;4.97;;;;;;;;;;5016038;28;20041;-82
2022/05/30 00:57:20;;;;;;;9.10;5.40;;;;;;;;;;5016061;28;20080;-82
2022/05/30 00:59:53;;;;;;;5.60;4.18;;;;;;;;;;5015796;28;20053;-81
2022/05/30 01:02:22;;;;;;;4.43;4.00;;;;;;;;;;5015646;28;20132;-81
2022/05/30 01:07:36;;;;;;;4.28;3.90;;;;;;;;;;5033435;28;20081;-81
2022/05/30 01:10:06;;;;;;;4.88;4.00;;;;;;;;;;5015526;28;20041;-82
2022/05/30 01:12:41;;;;;;;4.63;4.13;;;;;;;;;;5033168;28;20068;-81
2022/05/30 01:15:10;;;;;;;4.38;3.45;;;;;;;;;;5033356;28;20086;-81
2022/05/30 01:17:52;;;;;;;4.07;3.75;;;;;;;;;;5015505;28;20465;-82
2022/05/30 01:20:35;;;;;;;7.53;3.83;;;;;;;;;;5015371;28;20084;-80
2022/05/30 01:23:23;;;;;;;4.10;3.80;;;;;;;;;;5015731;28;20529;-81
2022/05/30 01:26:07;;;;;;;4.68;4.30;;;;;;;;;;5015567;28;20049;-82
2022/05/30 01:28:47;;;;;;;3.70;3.40;;;;;;;;;;5017584;28;20148;-82
2022/05/30 01:31:15;;;;;;;3.72;3.17;;;;;;;;;;5036664;28;20081;-81
2022/05/30 01:33:42;;;;;;;3.95;3.65;;;;;;;;;;5019104;28;20077;-82
2022/05/30 01:36:09;;;;;;;3.55;3.25;;;;;;;;;;5036747;28;20069;-81
2022/05/30 01:38:37;;;;;;;4.40;4.00;;;;;;;;;;5019164;28;20447;-81
2022/05/30 01:41:04;;;;;;;5.65;3.80;;;;;;;;;;5019116;28;20594;-81
2022/05/30 01:43:32;;;;;;;4.60;4.00;;;;;;;;;;5036299;28;20545;-81
2022/05/30 01:46:06;;;;;;;4.75;4.10;;;;;;;;;;5036286;28;20053;-81
2022/05/30 01:48:33;;;;;;;4.47;4.07;;;;;;;;;;5018675;28;20050;-81
2022/05/30 01:51:00;;;;;;;4.25;3.53;;;;;;;;;;5018831;28;20049;-82
2022/05/30 01:53:28;;;;;;;4.15;3.75;;;;;;;;;;5018621;28;20128;-82
2022/05/30 01:55:56;;;;;;;3.65;3.35;;;;;;;;;;5018901;28;20085;-81
2022/05/30 01:58:23;;;;;;;3.58;3.38;;;;;;;;;;5018534;28;20136;-82
2022/05/30 02:00:50;;;;;;;3.88;3.53;;;;;;;;;;5018504;28;20060;-81
2022/05/30 02:03:17;;;;;;;3.55;3.25;;;;;;;;;;5017963;28;20092;-81
2022/05/30 02:05:44;;;;;;;7.32;3.70;;;;;;;;;;5035850;28;20086;-81
2022/05/30 02:08:16;;;;;;;3.25;3.00;;;;;;;;;;5035638;28;20049;-82
2022/05/30 02:10:43;;;;;;;4.13;3.83;;;;;;;;;;5035431;28;20080;-82
2022/05/30 02:13:10;;;;;;;3.35;3.15;;;;;;;;;;5017821;28;20049;-82
2022/05/30 02:17:00;;;;;;;3.28;2.72;;;;;;;;;;5017807;28;20081;-81
2022/05/30 02:18:24;;;;;;;3.28;2.97;;;;;;;;;;5035394;28;20045;-82
2022/05/30 02:20:51;;;;;;;5.03;4.38;;;;;;;;;;5017659;28;20092;-82
2022/05/30 02:23:19;;;;;;;7.15;4.75;;;;;;;;;;5017573;28;20144;-81
2022/05/30 02:25:46;;;;;;;9.00;6.70;;;;;;;;;;5035409;28;20088;-81
2022/05/30 02:28:13;;;;;;;7.88;7.07;;;;;;;;;;5035153;28;20076;-82
2022/05/30 02:30:40;;;;;;;9.25;8.25;;;;;;;;;;5017376;28;20081;-82
2022/05/30 02:38:39;;;;;;;3.92;3.63;;;;;;;;;;5034370;28;20167;-81
2022/05/30 02:41:06;;;;;;;5.25;3.53;;;;;;;;;;5034891;28;20532;-81
2022/05/30 02:43:33;;;;;;;3.90;3.60;;;;;;;;;;5017382;28;20053;-81
2022/05/30 02:46:00;;;;;;;3.75;3.42;;;;;;;;;;5043883;28;20106;-81
2022/05/30 02:48:28;;;;;;;4.07;3.78;;;;;;;;;;5053188;28;20573;-81
2022/05/30 02:50:55;;;;;;;3.58;3.30;;;;;;;;;;5053377;28;20084;-81
2022/05/30 02:53:22;;;;;;;3.13;2.90;;;;;;;;;;5053107;28;20045;-81
2022/05/30 02:55:49;;;;;;;3.50;3.20;;;;;;;;;;5053602;28;20064;-82
2022/05/30 02:58:16;;;;;;;4.90;4.50;;;;;;;;;;5054194;28;20072;-81
2022/05/30 03:00:43;;;;;;;28.58;25.58;;;;;;;;;;5053419;28;20144;-80
2022/05/30 03:03:11;;;;;;;11.73;10.52;;;;;;;;;;5053460;28;20052;-81
2022/05/30 03:05:39;;;;;;;6.53;5.93;;;;;;;;;;5053470;28;20494;-81
2022/05/30 03:08:07;;;;;;;6.57;5.28;;;;;;;;;;5054531;28;20500;-81
2022/05/30 03:10:34;;;;;;;6.18;4.70;;;;;;;;;;5054519;28;20131;-81
2022/05/30 03:13:01;;;;;;;10.68;9.02;;;;;;;;;;5053129;28;20131;-81
2022/05/30 03:15:28;;;;;;;24.40;19.05;;;;;;;;;;5052862;28;20075;-81
2022/05/30 03:17:55;;;;;;;16.25;14.55;;;;;;;;;;5054580;28;20136;-80
2022/05/30 03:20:23;;;;;;;21.20;19.00;;;;;;;;;;5053158;28;20139;-81
2022/05/30 03:22:50;;;;;;;11.25;10.30;;;;;;;;;;5053412;28;20084;-82
2022/05/30 03:25:18;;;;;;;4.20;3.80;;;;;;;;;;5053105;28;20076;-81
2022/05/30 03:27:45;;;;;;;7.43;4.05;;;;;;;;;;5053231;28;20076;-82
2022/05/30 03:30:13;;;;;;;4.70;4.30;;;;;;;;;;5054443;28;20128;-80
2022/05/30 03:32:41;;;;;;;4.10;3.80;;;;;;;;;;5052939;28;20041;-81
2022/05/30 03:35:08;;;;;;;4.40;4.00;;;;;;;;;;5052994;28;20068;-81
2022/05/30 03:37:36;;;;;;;8.00;7.25;;;;;;;;;;5053270;28;20088;-82
2022/05/30 03:40:07;;;;;;;9.10;8.32;;;;;;;;;;5053959;28;20136;-81
2022/05/30 03:42:35;;;;;;;5.10;4.68;;;;;;;;;;5054812;28;20525;-81
2022/05/30 03:45:02;;;;;;;4.72;4.35;;;;;;;;;;5059707;28;20061;-82
2022/05/30 03:47:35;;;;;;;7.00;6.03;;;;;;;;;;5056724;28;20053;-82
2022/05/30 03:50:02;;;;;;;8.55;7.85;;;;;;;;;;5058275;28;20083;-82
2022/05/30 03:52:29;;;;;;;7.93;7.20;;;;;;;;;;5059491;28;20409;-82
2022/05/30 03:54:56;;;;;;;6.50;5.90;;;;;;;;;;5060642;28;20072;-82
2022/05/30 03:57:23;;;;;;;6.10;5.50;;;;;;;;;;5058985;28;20080;-81
2022/05/30 03:59:51;;;;;;;8.52;7.68;;;;;;;;;;5056918;28;20566;-82
2022/05/30 04:02:18;;;;;;;5.97;5.50;;;;;;;;;;5059478;28;20055;-83
2022/05/30 04:04:45;;;;;;;4.75;4.32;;;;;;;;;;5058947;28;20064;-82
2022/05/30 04:07:12;;;;;;;4.28;3.85;;;;;;;;;;5058926;28;20421;-82
2022/05/30 04:09:39;;;;;;;4.03;3.70;;;;;;;;;;5059767;28;20091;-82
2022/05/30 04:12:07;;;;;;;6.40;3.50;;;;;;;;;;5059401;28;20049;-82
2022/05/30 04:14:34;;;;;;;3.67;3.35;;;;;;;;;;5059644;28;20077;-82
2022/05/30 04:17:01;;;;;;;7.63;3.95;;;;;;;;;;5059470;28;20075;-83
2022/05/30 04:19:28;;;;;;;4.38;3.97;;;;;;;;;;5058889;28;20414;-82
2022/05/30 04:21:55;;;;;;;4.35;3.53;;;;;;;;;;5057234;28;20083;-82
2022/05/30 04:24:23;;;;;;;3.85;3.65;;;;;;;;;;5058601;28;20084;-81
2022/05/30 04:26:54;;;;;;;5.07;3.53;;;;;;;;;;5057564;28;20052;-82
2022/05/30 04:29:22;;;;;;;5.10;4.60;;;;;;;;;;5057178;28;20072;-81
2022/05/30 04:31:49;;;;;;;6.93;5.85;;;;;;;;;;5059062;28;20077;-82
2022/05/30 04:34:16;;;;;;;6.35;5.68;;;;;;;;;;5057373;28;20059;-82
2022/05/30 04:36:43;;;;;;;8.95;6.40;;;;;;;;;;5055965;28;20087;-81
2022/05/30 04:39:10;;;;;;;6.30;5.55;;;;;;;;;;5058253;28;20131;-82
2022/05/30 04:41:37;;;;;;;5.53;5.13;;;;;;;;;;5054950;28;20084;-82
2022/05/30 04:44:05;;;;;;;4.47;4.13;;;;;;;;;;5056342;28;20084;-82
2022/05/30 04:46:32;;;;;;;4.32;4.03;;;;;;;;;;5038580;28;20061;-82
2022/05/30 04:48:59;;;;;;;4.93;4.43;;;;;;;;;;5038988;28;20168;-81
2022/05/30 04:51:29;;;;;;;7.47;4.30;;;;;;;;;;5021146;28;20073;-82
2022/05/30 04:53:56;;;;;;;9.05;3.50;;;;;;;;;;5021016;28;20050;-82
2022/05/30 04:56:23;;;;;;;4.10;3.15;;;;;;;;;;5020560;28;20564;-82
2022/05/30 04:58:51;;;;;;;3.20;3.00;;;;;;;;;;5019121;28;20048;-82
2022/05/30 05:01:18;;;;;;;3.45;2.90;;;;;;;;;;5020079;28;20148;-82
2022/05/30 05:03:46;;;;;;;3.13;2.88;;;;;;;;;;5024064;28;20111;-82
2022/05/30 05:06:14;;;;;;;7.03;3.92;;;;;;;;;;5023575;28;20045;-83
2022/05/30 05:08:48;;;;;;;8.77;3.95;;;;;;;;;;5023826;28;20080;-82
2022/05/30 05:11:20;;;;;;;17.92;4.95;;;;;;;;;;5040620;28;20544;-82
2022/05/30 05:13:47;;;;;;;15.43;4.40;;;;;;;;;;5024030;28;20049;-82
2022/05/30 05:16:15;;;;;;;13.93;5.43;;;;;;;;;;5041299;28;20327;-82
2022/05/30 05:18:43;;;;;;;10.93;4.22;;;;;;;;;;5023195;28;20049;-82
2022/05/30 05:21:27;;;;;;;8.98;3.40;;;;;;;;;;5041989;28;20140;-82
2022/05/30 05:23:56;;;;;;;10.38;3.42;;;;;;;;;;5041189;28;20056;-82
2022/05/30 05:26:23;;;;;;;7.82;3.47;;;;;;;;;;5023619;28;20083;-82
2022/05/30 05:28:51;;;;;;;5.78;2.60;;;;;;;;;;5024593;28;20045;-82
2022/05/30 05:31:27;;;;;;;1.77;1.60;;;;;;;;;;5021896;28;20080;-82
2022/05/30 05:33:57;;;;;;;1.83;1.60;;;;;;;;;;5040405;28;20053;-82
2022/05/30 05:36:26;;;;;;;5.95;2.25;;;;;;;;;;5022969;28;20465;-83
2022/05/30 05:38:53;;;;;;;2.50;2.30;;;;;;;;;;5040012;28;20124;-82
2022/05/30 05:41:21;;;;;;;4.22;2.47;;;;;;;;;;5040197;28;20528;-82
2022/05/30 05:43:49;;;;;;;2.10;2.00;;;;;;;;;;5039894;28;20474;-82
2022/05/30 05:46:17;;;;;;;3.65;2.20;;;;;;;;;;5053383;28;20068;-82
2022/05/30 05:48:45;;;;;;;2.70;2.50;;;;;;;;;;5057691;28;20057;-82
2022/05/30 05:51:13;;;;;;;3.95;2.70;;;;;;;;;;5056828;28;20446;-82
2022/05/30 05:53:42;;;;;;;4.25;1.80;;;;;;;;;;5059587;28;20049;-83
2022/05/30 05:56:10;;;;;;;1.80;1.67;;;;;;;;;;5060743;28;20084;-82
2022/05/30 05:58:37;;;;;;;2.50;2.00;;;;;;;;;;5058727;28;20163;-83
2022/05/30 06:01:10;;;;;;;3.33;2.42;;;;;;;;;;5057686;28;20072;-82
2022/05/30 06:03:37;;;;;;;2.58;1.88;;;;;;;;;;5057618;28;20055;-81
2022/05/30 06:06:05;;;;;;;3.03;2.10;;;;;;;;;;5056596;28;20535;-82
2022/05/30 06:08:33;;;;;;;3.03;2.83;;;;;;;;;;5056218;28;20140;-83
2022/05/30 06:11:08;;;;;;;9.48;2.75;;;;;;;;;;5056072;28;20130;-82
2022/05/30 06:13:36;;;;;;;5.20;2.80;;;;;;;;;;5056486;28;20148;-81
2022/05/30 06:16:04;;;;;;;7.82;3.40;;;;;;;;;;5057090;28;20132;-82
2022/05/30 06:18:31;;;;;;;12.05;3.90;;;;;;;;;;5055727;28;20510;-82
2022/05/30 06:20:59;;;;;;;14.55;4.03;;;;;;;;;;5055403;28;20132;-82
2022/05/30 06:23:26;;;;;;;11.85;2.88;;;;;;;;;;5055323;28;20053;-82
2022/05/30 06:25:54;;;;;;;2.60;2.40;;;;;;;;;;5055917;28;20052;-82
2022/05/30 06:28:21;;;;;;;3.15;2.22;;;;;;;;;;5056798;28;20128;-82
2022/05/30 06:30:48;;;;;;;6.45;2.38;;;;;;;;;;5055146;28;20048;-83
2022/05/30 06:33:16;;;;;;;3.58;1.75;;;;;;;;;;5054698;28;20041;-81
2022/05/30 06:35:44;;;;;;;10.30;2.50;;;;;;;;;;5055199;28;20528;-82
2022/05/30 06:38:11;;;;;;;15.95;3.42;;;;;;;;;;5055873;28;20048;-80
2022/05/30 06:40:39;;;;;;;21.27;4.30;;;;;;;;;;5055380;28;20524;-83
2022/05/30 06:43:06;;;;;;;17.98;3.45;;;;;;;;;;5055198;28;20045;-81
2022/05/30 06:45:33;;;;;;;19.00;3.67;;;;;;;;;;5054301;28;20079;-82
2022/05/30 06:48:01;;;;;;;15.10;3.58;;;;;;;;;;5056172;28;20055;-83
2022/05/30 06:50:28;;;;;;;15.10;3.80;;;;;;;;;;5054832;28;20105;-83
2022/05/30 06:52:55;;;;;;;5.60;3.03;;;;;;;;;;5055781;28;20132;-82
2022/05/30 06:55:22;;;;;;;13.57;3.55;;;;;;;;;;5056028;28;20084;-82
2022/05/30 07:00:35;;;;;;;12.80;4.10;;;;;;;;;;5056481;28;20049;-83
2022/05/30 07:03:02;;;;;;;296.35;206.35;;;;;;;;;;5054797;28;20072;-82
2022/05/30 07:05:30;;;;;;;11.02;5.28;;;;;;;;;;5054059;28;20055;-83
2022/05/30 07:07:58;;;;;;;14.95;5.57;;;;;;;;;;5055217;28;20520;-82
2022/05/30 07:10:26;;;;;;;11.80;4.38;;;;;;;;;;5053289;28;20048;-82
2022/05/30 07:12:53;;;;;;;9.45;3.80;;;;;;;;;;5053299;28;20132;-82
2022/05/30 07:15:20;;;;;;;9.63;4.00;;;;;;;;;;5054106;28;20080;-82
2022/05/30 07:17:52;;;;;;;12.68;4.20;;;;;;;;;;5054879;28;20048;-82
2022/05/30 07:20:19;;;;;;;16.30;11.45;;;;;;;;;;5053524;28;20053;-82
2022/05/30 07:22:46;;;;;;;10.30;3.95;;;;;;;;;;5056540;28;20087;-82
2022/05/30 07:25:13;;;;;;;5.57;2.92;;;;;;;;;;5056492;28;20049;-83
2022/05/30 07:27:41;;;;;;;4.55;2.60;;;;;;;;;;5055856;28;20135;-83
2022/05/30 07:30:09;;;;;;;3.58;1.98;;;;;;;;;;5054791;28;20053;-83
2022/05/30 07:32:36;;;;;;;4.10;2.55;;;;;;;;;;5057423;28;20076;-82
2022/05/30 07:35:03;;;;;;;1.70;1.60;;;;;;;;;;5056463;28;20420;-83
2022/05/30 07:37:31;;;;;;;3.50;1.40;;;;;;;;;;5057255;28;20408;-82
2022/05/30 07:39:58;;;;;;;3.55;2.15;;;;;;;;;;5055230;28;20087;-83
2022/05/30 07:42:25;;;;;;;3.65;1.42;;;;;;;;;;5065572;28;20057;-83
2022/05/30 07:44:52;;;;;;;3.20;1.00;;;;;;;;;;5060145;28;20065;-83
2022/05/30 07:47:20;;;;;;;5.88;1.92;;;;;;;;;;5060610;28;20418;-82
2022/05/30 07:49:48;;;;;;;1.65;0.98;;;;;;;;;;5062586;28;20128;-83
2022/05/30 07:52:15;;;;;;;1.83;1.40;;;;;;;;;;5058315;28;20041;-83
2022/05/30 07:54:43;;;;;;;1.95;1.20;;;;;;;;;;5061324;28;20045;-83
2022/05/30 07:57:11;;;;;;;2.92;2.00;;;;;;;;;;5061339;28;20484;-84
2022/05/30 07:59:38;;;;;;;5.32;4.82;;;;;;;;;;5059753;28;20452;-83
2022/05/30 08:02:06;;;;;;;6.63;4.03;;;;;;;;;;5059612;28;20045;-84
2022/05/30 08:04:35;;;;;;;1.35;1.25;;;;;;;;;;5058956;28;20395;-83
2022/05/30 08:07:04;;;;;;;2.10;1.55;;;;;;;;;;5053613;28;20080;-82
2022/05/30 08:09:31;;;;;;;0.80;0.80;;;;;;;;;;5053066;28;20060;-82
2022/05/30 08:11:59;;;;;;;2.25;1.23;;;;;;;;;;5053759;28;20573;-84
2022/05/30 08:14:26;;;;;;;2.33;2.13;;;;;;;;;;5052642;28;20072;-84
2022/05/30 08:16:53;;;;;;;3.72;3.42;;;;;;;;;;5052499;28;20080;-83
2022/05/30 08:19:21;;;;;;;4.53;0.77;;;;;;;;;;5051881;28;20057;-82
2022/05/30 08:22:09;;;;;;;1.23;0.90;;;;;;;;;;5052962;28;20426;-83
2022/05/30 08:24:37;;;;;;;7.78;1.25;;;;;;;;;;5052170;28;20048;-82
2022/05/30 08:27:04;;;;;;;1.75;0.80;;;;;;;;;;5054021;28;20088;-84
2022/05/30 08:29:32;;;;;;;1.98;1.55;;;;;;;;;;5052258;28;20430;-83
2022/05/30 08:31:59;;;;;;;5.00;1.08;;;;;;;;;;5051773;28;20102;-83
2022/05/30 08:34:26;;;;;;;2.13;1.92;;;;;;;;;;5053321;28;20049;-83
2022/05/30 08:36:54;;;;;;;1.48;1.38;;;;;;;;;;5052309;28;20475;-83
2022/05/30 08:42:08;;;;;;;38.90;21.88;;;;;;;;;;5053479;28;20103;-83
2022/05/30 08:44:35;;;;;;;4.05;2.90;;;;;;;;;;5052407;28;20056;-83
2022/05/30 08:47:07;;;;;;;2.92;1.00;;;;;;;;;;5051762;28;20524;-82
2022/05/30 08:49:46;;;;;;;3.28;2.60;;;;;;;;;;5052971;28;20059;-83
2022/05/30 08:52:19;;;;;;;2.10;0.93;;;;;;;;;;5051679;28;20041;-83
2022/05/30 08:54:46;;;;;;;3.90;1.00;;;;;;;;;;5052483;28;20128;-83
2022/05/30 08:57:25;;;;;;;8.63;3.83;;;;;;;;;;5051889;28;20084;-83
2022/05/30 09:00:13;;;;;;;7.25;1.02;;;;;;;;;;5076702;22;20073;-86
2022/05/30 09:02:46;;;;;;;1.35;0.93;;;;;;;;;;5052827;28;20129;-85
2022/05/30 09:05:17;;;;;;;1.55;0.85;;;;;;;;;;5035038;28;20092;-86
2022/05/30 09:08:09;;;;;;;2.67;0.70;;;;;;;;;;5038600;28;20417;-85
2022/05/30 09:10:48;;;;;;;4.50;0.80;;;;;;;;;;5035826;28;20053;-86
2022/05/30 09:13:21;;;;;;;0.90;0.70;;;;;;;;;;5035274;28;20053;-86
2022/05/30 09:16:03;;;;;;;4.25;0.70;;;;;;;;;;5035520;28;20059;-86
2022/05/30 09:18:36;;;;;;;1.73;0.77;;;;;;;;;;5035567;28;20117;-86
2022/05/30 09:21:03;;;;;;;9.13;1.27;;;;;;;;;;5053130;28;20045;-87
2022/05/30 09:23:30;;;;;;;5.03;0.65;;;;;;;;;;5035327;28;20045;-85
2022/05/30 09:26:00;;;;;;;5.15;0.90;;;;;;;;;;5034927;28;20424;-83
2022/05/30 09:28:31;;;;;;;0.90;0.55;;;;;;;;;;5035451;28;20080;-85
2022/05/30 09:31:11;;;;;;;1.15;0.43;;;;;;;;;;5052831;28;20497;-85
2022/05/30 09:33:39;;;;;;;0.70;0.40;;;;;;;;;;5035096;28;20480;-85
2022/05/30 09:36:20;;;;;;;0.50;0.40;;;;;;;;;;5035240;28;20049;-86
2022/05/30 09:38:50;;;;;;;1.33;0.50;;;;;;;;;;5036688;28;20080;-84
2022/05/30 09:41:19;;;;;;;3.25;0.50;;;;;;;;;;5052717;28;20520;-86
2022/05/30 09:43:50;;;;;;;4.40;0.77;;;;;;;;;;5035369;28;20531;-85
2022/05/30 09:46:27;;;;;;;15.88;1.25;;;;;;;;;;5052391;28;20045;-84
2022/05/30 09:49:03;;;;;;;1.70;0.50;;;;;;;;;;5036022;28;20416;-85
2022/05/30 09:51:31;;;;;;;4.07;0.63;;;;;;;;;;5056329;28;20139;-86
2022/05/30 09:53:58;;;;;;;7.15;1.02;;;;;;;;;;5056336;28;20049;-85
2022/05/30 09:56:27;;;;;;;6.35;0.68;;;;;;;;;;5038218;28;20052;-84
2022/05/30 09:59:02;;;;;;;0.75;0.45;;;;;;;;;;5038404;28;20136;-85
2022/05/30 10:01:31;;;;;;;1.17;0.30;;;;;;;;;;5038385;28;20059;-85
2022/05/30 10:04:38;;;;;;;2.05;0.40;;;;;;;;;;5038633;28;20056;-85
2022/05/30 10:07:15;;;;;;;2.03;0.43;;;;;;;;;;4956219;29;20135;-85
2022/05/30 10:09:56;;;;;;;0.90;0.32;;;;;;;;;;4941109;29;20047;-86
2022/05/30 10:12:31;;;;;;;2.73;0.70;;;;;;;;;;5004198;28;20083;-86
2022/05/30 10:14:58;;;;;;;1.33;0.50;;;;;;;;;;5038467;28;20292;-85
2022/05/30 10:17:33;;;;;;;1.95;0.45;;;;;;;;;;5056137;28;20127;-86
2022/05/30 10:20:02;;;;;;;4.25;0.50;;;;;;;;;;5038421;28;20088;-85
2022/05/30 10:28:40;;;;;;;1.08;0.52;;;;;;;;;;5055522;28;20103;-84
2022/05/30 10:31:10;;;;;;;1.00;0.47;;;;;;;;;;5055722;28;20053;-85
2022/05/30 10:33:48;;;;;;;1.02;0.50;;;;;;;;;;5038291;28;20091;-85
2022/05/30 10:36:33;;;;;;;2.47;0.65;;;;;;;;;;5037969;28;20049;-86
2022/05/30 10:39:19;;;;;;;1.67;0.60;;;;;;;;;;5037993;28;20049;-86
2022/05/30 10:41:54;;;;;;;1.33;0.50;;;;;;;;;;5037937;28;20131;-86
2022/05/30 10:44:26;;;;;;;0.68;0.52;;;;;;;;;;5037622;28;20128;-86
2022/05/30 10:47:02;;;;;;;0.85;0.40;;;;;;;;;;5037951;28;20131;-85
2022/05/30 10:49:34;;;;;;;0.65;0.35;;;;;;;;;;5055009;28;20041;-85
2022/05/30 10:52:06;;;;;;;1.25;0.50;;;;;;;;;;5037478;28;20059;-84
2022/05/30 10:54:38;;;;;;;0.88;0.55;;;;;;;;;;5037614;28;20112;-85
2022/05/30 10:57:11;;;;;;;1.95;0.50;;;;;;;;;;5038078;28;20080;-85
2022/05/30 10:59:42;;;;;;;3.40;0.45;;;;;;;;;;5037389;28;20084;-86
2022/05/30 11:02:13;;;;;;;1.08;0.45;;;;;;;;;;5037397;28;20198;-85
2022/05/30 11:04:49;;;;;;;1.30;0.63;;;;;;;;;;5054995;28;20049;-85
2022/05/30 11:07:36;;;;;;;1.13;0.68;;;;;;;;;;5037397;28;20049;-84
2022/05/30 11:10:12;;;;;;;1.77;0.55;;;;;;;;;;5037304;28;20136;-85
2022/05/30 11:12:42;;;;;;;0.60;0.60;;;;;;;;;;5054658;28;20045;-84
2022/05/30 11:15:17;;;;;;;4.20;0.90;;;;;;;;;;5036461;28;20065;-83
2022/05/30 11:18:11;;;;;;;1.10;0.47;;;;;;;;;;5054251;28;20080;-83
2022/05/30 11:21:01;;;;;;;1.48;0.43;;;;;;;;;;5053916;28;20084;-84
2022/05/30 11:23:28;;;;;;;0.90;0.50;;;;;;;;;;5036351;28;20045;-84
2022/05/30 11:26:17;;;;;;;1.13;0.47;;;;;;;;;;5053848;28;20056;-82
2022/05/30 11:28:45;;;;;;;2.70;0.70;;;;;;;;;;5036390;28;20041;-82
2022/05/30 11:31:32;;;;;;;1.98;0.68;;;;;;;;;;5036122;28;20139;-84
2022/05/30 11:34:09;;;;;;;0.70;0.50;;;;;;;;;;5036676;28;20049;-85
2022/05/30 11:36:42;;;;;;;0.63;0.43;;;;;;;;;;5036486;28;20464;-84
2022/05/30 11:39:24;;;;;;;8.50;0.50;;;;;;;;;;5053964;28;20088;-85
2022/05/30 11:41:51;;;;;;;1.00;0.40;;;;;;;;;;5053810;28;20140;-83
2022/05/30 11:44:34;;;;;;;0.95;0.47;;;;;;;;;;5054173;28;20540;-84
2022/05/30 11:47:04;;;;;;;0.75;0.60;;;;;;;;;;5036524;28;20131;-85
2022/05/30 11:49:36;;;;;;;2.58;0.60;;;;;;;;;;5036356;28;20045;-86
2022/05/30 11:52:17;;;;;;;2.85;0.90;;;;;;;;;;5036156;28;20055;-84
2022/05/30 11:54:44;;;;;;;4.18;0.65;;;;;;;;;;5036476;28;20049;-85
2022/05/30 11:57:17;;;;;;;0.93;0.85;;;;;;;;;;5036073;28;20102;-84
2022/05/30 11:59:45;;;;;;;;;;;;;;;;;;5036696;28;20150;-84
2022/05/30 12:02:16;;;;;;;3.20;0.70;;;;;;;;;;5036072;28;20008;-84
2022/05/30 12:04:51;;;;;;;1.23;0.60;;;;;;;;;;5036259;28;20076;-85
2022/05/30 12:07:46;;;;;;;2.72;0.57;;;;;;;;;;5036210;28;20122;-85
2022/05/30 12:10:17;;;;;;;0.98;0.60;;;;;;;;;;5053424;28;20139;-85
2022/05/30 12:12:59;;;;;;;0.82;0.50;;;;;;;;;;5035266;28;20055;-85
2022/05/30 12:15:29;;;;;;;5.00;0.77;;;;;;;;;;5053526;28;20476;-84
2022/05/30 12:23:50;;;;;;;0.60;0.60;;;;;;;;;;5053201;28;20100;-87
2022/05/30 12:26:38;;;;;;;0.57;0.50;;;;;;;;;;5053539;28;20053;-86
2022/05/30 12:29:05;;;;;;;1.13;0.50;;;;;;;;;;5035571;28;20045;-87
2022/05/30 12:31:33;;;;;;;8.70;1.00;;;;;;;;;;5053339;28;20432;-88
2022/05/30 12:34:01;;;;;;;1.50;0.52;;;;;;;;;;5053280;28;20056;-89
2022/05/30 12:36:32;;;;;;;3.25;0.50;;;;;;;;;;5035775;28;20132;-86
2022/05/30 12:39:00;;;;;;;2.47;0.70;;;;;;;;;;5035823;28;20055;-87
2022/05/30 12:41:28;;;;;;;1.40;0.40;;;;;;;;;;5035991;28;20087;-88
2022/05/30 12:43:55;;;;;;;2.60;0.57;;;;;;;;;;5035791;28;20104;-88
2022/05/30 12:46:24;;;;;;;4.97;0.55;;;;;;;;;;5053217;28;20051;-88
2022/05/30 12:49:15;;;;;;;3.50;0.70;;;;;;;;;;5053579;28;20128;-84
2022/05/30 12:51:59;;;;;;;2.08;0.85;;;;;;;;;;5035792;28;20477;-85
2022/05/30 12:54:29;;;;;;;0.73;0.60;;;;;;;;;;5035371;28;20094;-85
2022/05/30 12:57:02;;;;;;;1.65;0.40;;;;;;;;;;5036027;28;20048;-85
2022/05/30 12:59:33;;;;;;;2.88;0.60;;;;;;;;;;5035382;28;20079;-86
2022/05/30 13:02:02;;;;;;;4.68;1.25;;;;;;;;;;5035802;28;20083;-86
2022/05/30 13:04:35;;;;;;;1.58;0.60;;;;;;;;;;5035255;28;20115;-85
2022/05/30 13:07:04;;;;;;;0.60;0.50;;;;;;;;;;5052605;28;20056;-86
2022/05/30 13:09:36;;;;;;;3.15;0.68;;;;;;;;;;5052158;28;20485;-83
2022/05/30 13:12:17;;;;;;;1.08;0.68;;;;;;;;;;5035535;28;20053;-86
2022/05/30 13:14:48;;;;;;;1.35;0.60;;;;;;;;;;5052962;28;20092;-85
2022/05/30 13:17:19;;;;;;;0.82;0.70;;;;;;;;;;5035172;28;20049;-83
2022/05/30 13:19:48;;;;;;;4.78;1.15;;;;;;;;;;5053174;28;20045;-85
2022/05/30 13:22:16;;;;;;;2.22;0.77;;;;;;;;;;5053215;28;20056;-85
2022/05/30 13:24:43;;;;;;;1.17;0.60;;;;;;;;;;5039615;28;20472;-86
2022/05/30 13:27:11;;;;;;;2.17;0.63;;;;;;;;;;5039500;28;20562;-86
2022/05/30 13:29:40;;;;;;;1.25;0.63;;;;;;;;;;5039234;28;20045;-85
2022/05/30 13:32:11;;;;;;;1.10;0.80;;;;;;;;;;5038968;28;20527;-85
2022/05/30 13:34:41;;;;;;;1.02;0.60;;;;;;;;;;5056760;28;20049;-86
2022/05/30 13:37:08;;;;;;;2.67;0.40;;;;;;;;;;5056734;28;20124;-85
2022/05/30 13:39:36;;;;;;;4.13;0.68;;;;;;;;;;5056614;28;20080;-85
2022/05/30 13:42:03;;;;;;;4.68;1.00;;;;;;;;;;5038595;28;20135;-84
2022/05/30 13:44:34;;;;;;;1.85;0.73;;;;;;;;;;5038154;28;20119;-83
2022/05/30 13:47:06;;;;;;;4.57;1.30;;;;;;;;;;5056160;28;20489;-84
2022/05/30 13:49:35;;;;;;;1.80;0.80;;;;;;;;;;5055792;28;20056;-84
2022/05/30 13:52:04;;;;;;;9.07;1.17;;;;;;;;;;5056064;28;20048;-84
2022/05/30 13:54:31;;;;;;;1.80;0.90;;;;;;;;;;5056387;28;20416;-85
2022/05/30 13:57:00;;;;;;;1.25;0.70;;;;;;;;;;5038360;28;20600;-85
2022/05/30 13:59:35;;;;;;;1.00;0.70;;;;;;;;;;5038118;28;20115;-85
2022/05/30 14:02:30;;;;;;;1.55;0.57;;;;;;;;;;5041484;28;20045;-86
2022/05/30 14:05:07;;;;;;;1.40;0.70;;;;;;;;;;5039263;28;20167;-85
2022/05/30 14:07:43;;;;;;;2.75;0.95;;;;;;;;;;5056212;28;20454;-85
2022/05/30 14:10:11;;;;;;;2.75;0.70;;;;;;;;;;5056061;28;20045;-87
2022/05/30 14:12:58;;;;;;;1.83;0.90;;;;;;;;;;5041404;28;20045;-86
2022/05/30 14:15:31;;;;;;;3.17;0.75;;;;;;;;;;5037833;28;20118;-85
2022/05/30 14:17:59;;;;;;;3.50;0.90;;;;;;;;;;5055551;28;20087;-85
2022/05/30 14:20:26;;;;;;;1.30;0.88;;;;;;;;;;5037982;28;20136;-85
2022/05/30 14:22:57;;;;;;;1.52;0.63;;;;;;;;;;5038219;28;20505;-86
2022/05/30 14:25:29;;;;;;;1.45;0.80;;;;;;;;;;5038239;28;20080;-86
2022/05/30 14:27:56;;;;;;;1.02;0.88;;;;;;;;;;5038133;28;20083;-85
2022/05/30 14:30:30;;;;;;;2.40;0.80;;;;;;;;;;5037839;28;20156;-86
2022/05/30 14:33:08;;;;;;;1.17;0.68;;;;;;;;;;5038164;28;20080;-86
2022/05/30 14:35:36;;;;;;;1.75;0.57;;;;;;;;;;5054840;28;20446;-86
2022/05/30 14:38:05;;;;;;;1.17;0.45;;;;;;;;;;5038222;28;20129;-86
2022/05/30 14:40:38;;;;;;;1.25;0.70;;;;;;;;;;5055156;28;20055;-87
2022/05/30 14:43:22;;;;;;;0.67;0.67;;;;;;;;;;5037436;28;20076;-84
2022/05/30 14:46:00;;;;;;;1.98;0.90;;;;;;;;;;5037628;28;20295;-85
2022/05/30 14:48:28;;;;;;;3.10;0.90;;;;;;;;;;5037632;28;20048;-86
2022/05/30 14:50:56;;;;;;;0.52;0.50;;;;;;;;;;5055325;28;20053;-87
2022/05/30 14:53:27;;;;;;;1.02;0.88;;;;;;;;;;5037552;28;20473;-87
2022/05/30 14:55:56;;;;;;;1.00;0.70;;;;;;;;;;5037783;28;20131;-86
2022/05/30 14:58:26;;;;;;;1.23;0.50;;;;;;;;;;5028827;28;20077;-86
2022/05/30 15:00:58;;;;;;;2.35;1.00;;;;;;;;;;5015729;28;20124;-86
2022/05/30 15:06:14;;;;;;;1.35;0.77;;;;;;;;;;5015350;28;20042;-86
2022/05/30 15:08:41;;;;;;;2.45;0.80;;;;;;;;;;5015429;28;20056;-86
2022/05/30 15:11:15;;;;;;;0.90;0.50;;;;;;;;;;5014294;28;20129;-86
2022/05/30 15:13:42;;;;;;;;;;;;;;;;;;5015695;28;20049;-85
2022/05/30 15:16:09;;;;;;;6.63;0.73;;;;;;;;;;5014068;28;19994;-86
2022/05/30 15:18:36;;;;;;;0.80;0.73;;;;;;;;;;5015285;28;20872;-86
2022/05/30 15:21:07;;;;;;;2.97;0.50;;;;;;;;;;5014381;28;20100;-86
2022/05/30 15:23:34;;;;;;;2.08;0.65;;;;;;;;;;5014998;28;20049;-86
2022/05/30 15:26:01;;;;;;;1.45;1.00;;;;;;;;;;5014912;28;20046;-86
2022/05/30 15:28:29;;;;;;;1.60;0.70;;;;;;;;;;5013565;28;20045;-85
2022/05/30 15:30:56;;;;;;;0.93;0.40;;;;;;;;;;5014576;28;20502;-86